Time;durP1;ratioP1;P1;durP2;ratioP2;P2;SDS_P1;SDS_P2;PMS_P1;PMS_P2;Temp;Humidity;BMP_temperature;BMP_pressure;BME280_temperature;BME280_humidity;BME280_pressure;Samples;Min_cycle;Max_cycle;Signal;HPM_P1;HPM_P2
2021/04/21 00:01:40;;;;;;;7.57;4.17;;;;;;;8.29;69.33;98874.59;1770466;79;21751;-49
2021/04/21 00:04:08;;;;;;;6.10;4.30;;;;;;;8.30;69.32;98877.67;1771171;79;21104;-49
2021/04/21 00:06:36;;;;;;;5.07;4.10;;;;;;;8.28;69.32;98880.90;1746669;79;21908;-50
2021/04/21 00:09:18;;;;;;;6.30;4.13;;;;;;;8.25;69.34;98877.02;1767802;79;21087;-50
2021/04/21 00:11:45;;;;;;;6.27;5.43;;;;;;;8.23;69.42;98883.44;1768651;79;21203;-50
2021/04/21 00:14:17;;;;;;;7.93;5.30;;;;;;;8.19;69.47;98879.17;1768345;79;21689;-50
2021/04/21 00:16:45;;;;;;;4.90;3.83;;;;;;;8.15;69.54;98879.83;1765889;79;21202;-50
2021/04/21 00:19:15;;;;;;;3.93;3.20;;;;;;;8.13;69.64;98890.22;1768033;79;21107;-50
2021/04/21 00:21:45;;;;;;;4.70;3.47;;;;;;;8.12;69.68;98885.80;1764986;79;21473;-50
2021/04/21 00:24:12;;;;;;;3.93;3.53;;;;;;;8.10;69.77;98887.22;1766739;79;21348;-50
2021/04/21 00:26:47;;;;;;;7.17;3.80;;;;;;;8.11;69.86;98887.61;1766869;79;21501;-49
2021/04/21 00:29:14;;;;;;;3.93;3.50;;;;;;;8.12;69.93;98890.69;1765135;79;21103;-50
2021/04/21 00:31:44;;;;;;;4.03;3.63;;;;;;;8.12;69.96;98894.71;1747249;79;21179;-50
2021/04/21 00:34:12;;;;;;;4.73;3.47;;;;;;;8.12;69.95;98894.71;1769167;79;21162;-50
2021/04/21 00:36:41;;;;;;;5.77;3.70;;;;;;;8.11;69.95;98895.66;1766651;79;21469;-50
2021/04/21 00:39:10;;;;;;;5.43;3.93;;;;;;;8.09;69.95;98892.18;1767796;79;21123;-50
2021/04/21 00:42:21;;;;;;;4.33;3.87;;;;;;;8.07;69.93;98895.91;1766261;79;21159;-50
2021/04/21 00:45:02;;;;;;;4.17;3.77;;;;;;;8.03;69.97;98894.31;1769700;79;21150;-50
2021/04/21 00:48:09;;;;;;;3.97;3.37;;;;;;;7.96;70.00;98893.77;1768009;79;21843;-50
2021/04/21 00:50:52;;;;;;;4.07;2.87;;;;;;;7.92;70.10;98893.52;1766301;79;21275;-51
2021/04/21 00:53:34;;;;;;;5.30;2.10;;;;;;;7.88;70.16;98887.47;1746821;79;21502;-50
2021/04/21 00:56:42;;;;;;;2.23;1.67;;;;;;;7.88;70.26;98896.84;1740404;79;21231;-49
2021/04/21 00:59:24;;;;;;;3.20;2.23;;;;;;;7.89;70.34;98887.00;1764732;79;21641;-49
2021/04/21 01:01:59;;;;;;;5.03;2.60;;;;;;;7.97;70.39;98892.83;1869105;75;22486;-51
2021/04/21 01:04:28;;;;;;;3.90;3.13;;;;;;;7.93;70.35;98888.08;1839493;76;21349;-50
2021/04/21 01:06:57;;;;;;;5.30;3.50;;;;;;;7.94;70.36;98890.30;1841511;76;22065;-51
2021/04/21 01:09:25;;;;;;;4.27;2.87;;;;;;;7.93;70.37;98891.23;1843735;76;21592;-50
2021/04/21 01:12:05;;;;;;;4.70;3.77;;;;;;;7.92;70.37;98885.48;1807457;76;21170;-50
2021/04/21 01:14:39;;;;;;;4.40;3.87;;;;;;;7.91;70.33;98887.80;1801639;78;21194;-50
2021/04/21 01:17:08;;;;;;;4.13;3.30;;;;;;;7.88;70.35;98890.62;1776796;78;21091;-50
2021/04/21 01:19:58;;;;;;;6.77;2.97;;;;;;;7.85;70.38;98886.27;1789909;78;21488;-50
2021/04/21 01:22:54;;;;;;;3.00;2.57;;;;;;;7.82;70.37;98889.59;1788470;78;21182;-51
2021/04/21 01:25:36;;;;;;;3.57;2.57;;;;;;;7.79;70.45;98889.27;1802111;78;21193;-50
2021/04/21 01:28:12;;;;;;;2.60;2.40;;;;;;;7.77;70.54;98887.13;1802219;78;21182;-49
2021/04/21 01:30:43;;;;;;;4.97;2.53;;;;;;;7.78;70.60;98894.70;1771891;78;21715;-50
2021/04/21 01:33:16;;;;;;;2.63;2.43;;;;;;;7.79;70.63;98892.42;1803272;78;21430;-50
2021/04/21 01:35:55;;;;;;;4.33;2.70;;;;;;;7.79;70.62;98892.42;1804104;78;21016;-49
2021/04/21 01:38:23;;;;;;;4.13;3.73;;;;;;;7.78;70.60;98896.04;1773786;78;21585;-49
2021/04/21 01:40:52;;;;;;;6.13;3.20;;;;;;;7.76;70.62;98896.58;1776503;78;21091;-49
2021/04/21 01:43:22;;;;;;;3.50;3.20;;;;;;;7.73;70.63;98896.75;1803356;78;21361;-49
2021/04/21 01:45:54;;;;;;;3.87;3.00;;;;;;;7.69;70.71;98904.53;1785876;78;21230;-49
2021/04/21 01:48:23;;;;;;;3.07;2.80;;;;;;;7.64;70.76;98906.59;1777680;78;21217;-49
2021/04/21 01:50:51;;;;;;;3.03;2.77;;;;;;;7.57;70.89;98906.03;1802200;78;21590;-49
2021/04/21 01:53:27;;;;;;;2.53;2.27;;;;;;;7.52;71.00;98912.06;1774235;78;21173;-50
2021/04/21 01:56:02;;;;;;;2.83;2.13;;;;;;;7.49;71.12;98906.38;1771988;78;21238;-49
2021/04/21 01:59:02;;;;;;;3.13;2.30;;;;;;;7.47;71.25;98905.61;1712236;80;21889;-48
2021/04/21 02:01:56;;;;;;;2.30;1.90;;;;;;;7.48;71.33;98911.84;1805669;78;21183;-50
2021/04/21 02:04:47;;;;;;;2.97;2.67;;;;;;;7.48;71.39;98915.39;1788872;78;21183;-51
2021/04/21 02:07:27;;;;;;;2.17;1.97;;;;;;;7.46;71.41;98913.25;1767347;79;21629;-50
2021/04/21 02:10:19;;;;;;;2.87;2.67;;;;;;;7.44;71.50;98916.93;1774943;78;21193;-51
2021/04/21 02:13:10;;;;;;;2.37;2.03;;;;;;;7.42;71.55;98919.67;1802875;78;21198;-50
2021/04/21 02:15:53;;;;;;;3.67;2.23;;;;;;;7.39;71.58;98921.19;1764539;79;21105;-50
2021/04/21 02:18:54;;;;;;;5.67;3.03;;;;;;;7.35;71.68;98925.41;1774757;78;21131;-51
2021/04/21 02:21:29;;;;;;;2.10;1.60;;;;;;;7.32;71.75;98930.89;1797808;78;21107;-50
2021/04/21 02:24:24;;;;;;;1.97;1.83;;;;;;;7.28;71.84;98928.86;1807219;78;21076;-51
2021/04/21 02:27:11;;;;;;;1.77;1.62;;;;;;;7.25;71.93;98926.31;1805703;78;21835;-50
2021/04/21 02:29:58;;;;;;;3.17;1.47;;;;;;;7.25;72.03;98930.33;1805027;78;21437;-49
2021/04/21 02:33:13;;;;;;;1.63;1.40;;;;;;;7.24;72.10;98928.59;1810599;78;20957;-50
2021/04/21 02:35:52;;;;;;;3.33;1.93;;;;;;;7.23;72.22;98930.03;1776504;78;21126;-49
2021/04/21 02:38:36;;;;;;;2.30;2.03;;;;;;;7.21;72.30;98932.30;1798224;78;21067;-51
2021/04/21 02:41:16;;;;;;;1.97;1.87;;;;;;;7.22;72.36;98939.87;1778904;78;21197;-50
2021/04/21 02:44:22;;;;;;;2.90;2.27;;;;;;;7.20;72.40;98936.39;1803106;78;21107;-51
2021/04/21 02:47:17;;;;;;;3.53;3.07;;;;;;;7.17;72.52;98932.03;1729030;79;21111;-49
2021/04/21 02:50:12;;;;;;;2.17;1.97;;;;;;;7.16;72.60;98936.12;1803147;78;21127;-50
2021/04/21 02:52:47;;;;;;;2.00;1.87;;;;;;;7.15;72.67;98938.39;1802110;78;21090;-50
2021/04/21 02:55:37;;;;;;;2.67;1.97;;;;;;;7.13;72.75;98935.81;1806190;78;22195;-49
2021/04/21 02:58:30;;;;;;;2.00;1.70;;;;;;;7.16;72.76;98938.33;1741632;80;21146;-50
2021/04/21 03:01:18;;;;;;;1.70;1.57;;;;;;;7.18;72.89;98941.80;1772631;78;21439;-50
2021/04/21 03:03:56;;;;;;;1.90;1.17;;;;;;;7.20;72.91;98943.95;1783758;78;21151;-49
2021/04/21 03:06:29;;;;;;;1.97;1.80;;;;;;;7.22;73.01;98943.88;1769686;78;21479;-51
2021/04/21 03:09:06;;;;;;;4.80;2.30;;;;;;;7.25;73.03;98950.41;1799398;77;21377;-50
2021/04/21 03:11:34;;;;;;;2.80;2.50;;;;;;;7.27;73.04;98953.88;1772883;78;21083;-51
2021/04/21 03:14:16;;;;;;;4.43;2.47;;;;;;;7.28;73.00;98955.63;1711322;80;21192;-49
2021/04/21 03:16:47;;;;;;;4.50;3.00;;;;;;;7.29;73.02;98949.80;1778353;78;21191;-51
2021/04/21 03:19:17;;;;;;;3.00;2.80;;;;;;;7.28;73.05;98954.75;1774357;79;21183;-50
2021/04/21 03:21:48;;;;;;;2.87;2.23;;;;;;;7.26;73.11;98957.97;1749412;78;22091;-50
2021/04/21 03:24:18;;;;;;;2.43;2.13;;;;;;;7.24;73.13;98963.39;1777107;79;21186;-51
2021/04/21 03:26:51;;;;;;;2.67;1.87;;;;;;;7.25;73.19;98962.92;1795719;78;21179;-50
2021/04/21 03:29:30;;;;;;;2.10;1.70;;;;;;;7.25;73.28;98961.58;1800917;78;21096;-51
2021/04/21 03:31:59;;;;;;;9.80;2.40;;;;;;;7.25;73.37;98967.80;1766548;79;21645;-50
2021/04/21 03:34:26;;;;;;;2.70;2.50;;;;;;;7.27;73.42;98970.41;1724140;79;21379;-50
2021/04/21 03:36:54;;;;;;;4.43;3.13;;;;;;;7.27;73.52;98974.43;1773849;79;21633;-51
2021/04/21 03:39:21;;;;;;;4.63;3.47;;;;;;;7.29;73.53;98979.25;1779321;78;21154;-50
2021/04/21 03:41:49;;;;;;;5.10;4.07;;;;;;;7.29;73.53;98981.46;1746541;79;21175;-51
2021/04/21 03:44:16;;;;;;;5.63;4.87;;;;;;;7.29;73.59;98986.81;1803950;78;21139;-50
2021/04/21 03:46:43;;;;;;;5.97;4.70;;;;;;;7.29;73.63;98987.28;1804001;78;21622;-50
2021/04/21 03:49:11;;;;;;;3.13;2.93;;;;;;;7.28;73.70;98991.77;1778083;78;21170;-51
2021/04/21 03:51:38;;;;;;;3.73;3.33;;;;;;;7.29;73.77;98992.17;1779107;78;21206;-50
2021/04/21 03:54:05;;;;;;;2.90;1.97;;;;;;;7.30;73.86;98993.03;1780690;78;21186;-50
2021/04/21 03:56:33;;;;;;;2.50;2.40;;;;;;;7.34;73.96;98993.27;1776264;78;21628;-51
2021/04/21 03:59:00;;;;;;;6.13;2.47;;;;;;;7.38;73.96;98995.75;1784470;79;21201;-50
2021/04/21 04:01:27;;;;;;;5.03;3.80;;;;;;;7.43;73.95;98995.52;1800773;77;21187;-51
2021/04/21 04:03:58;;;;;;;3.07;2.87;;;;;;;7.45;73.89;99000.34;1782384;78;21711;-51
2021/04/21 04:06:40;;;;;;;3.97;3.30;;;;;;;7.47;73.89;98997.13;1741992;79;21257;-50
2021/04/21 04:09:09;;;;;;;5.30;4.17;;;;;;;7.48;73.87;99002.41;1774486;79;21182;-50
2021/04/21 04:11:48;;;;;;;2.70;2.50;;;;;;;7.48;73.92;98999.73;1775688;79;21202;-51
2021/04/21 04:14:24;;;;;;;3.13;2.40;;;;;;;7.48;73.95;99005.09;1774437;79;21226;-50
2021/04/21 04:16:56;;;;;;;3.47;1.80;;;;;;;7.50;73.98;99009.87;1779800;79;21111;-51
2021/04/21 04:19:23;;;;;;;1.87;1.60;;;;;;;7.53;74.04;99005.73;1748866;78;21166;-51
2021/04/21 04:22:06;;;;;;;3.30;1.77;;;;;;;7.57;74.05;99008.64;1799131;77;21220;-50
2021/04/21 04:24:52;;;;;;;2.50;1.77;;;;;;;7.62;74.02;99011.12;1763763;79;21211;-51
2021/04/21 04:27:22;;;;;;;2.20;2.10;;;;;;;7.67;74.07;99017.58;1785628;79;21199;-50
2021/04/21 04:29:52;;;;;;;2.50;2.30;;;;;;;7.71;74.04;99018.71;1784998;79;21700;-50
2021/04/21 04:32:22;;;;;;;2.97;2.70;;;;;;;7.74;73.91;99022.56;1785102;79;21102;-49
2021/04/21 04:34:55;;;;;;;4.30;2.70;;;;;;;7.77;73.89;99025.58;1783766;79;21194;-50
2021/04/21 04:37:24;;;;;;;2.77;2.57;;;;;;;7.77;73.77;99019.74;1783101;79;21365;-50
2021/04/21 04:39:52;;;;;;;2.67;2.07;;;;;;;7.79;73.79;99027.72;1782262;79;21234;-51
2021/04/21 04:42:19;;;;;;;1.60;1.50;;;;;;;7.82;73.80;99028.45;1778545;79;21221;-50
2021/04/21 04:44:49;;;;;;;2.20;1.50;;;;;;;7.84;73.78;99025.66;1799795;77;22210;-51
2021/04/21 04:47:33;;;;;;;3.67;2.80;;;;;;;7.88;73.70;99024.13;1773838;79;21506;-50
2021/04/21 04:50:10;;;;;;;3.97;2.00;;;;;;;7.90;73.65;99023.58;1767630;78;22481;-50
2021/04/21 04:52:40;;;;;;;2.43;2.23;;;;;;;7.95;73.63;99020.19;1778776;78;21166;-49
2021/04/21 04:55:10;;;;;;;3.00;2.73;;;;;;;8.01;73.52;99019.01;1788276;78;21191;-49
2021/04/21 04:57:43;;;;;;;3.70;3.40;;;;;;;8.05;73.38;99013.91;1799849;77;21130;-50
2021/04/21 05:00:12;;;;;;;3.30;3.07;;;;;;;8.09;73.33;99014.61;1782228;78;21074;-49
2021/04/21 05:02:57;;;;;;;3.87;3.57;;;;;;;8.12;73.28;99013.13;1804513;78;21376;-50
2021/04/21 05:05:25;;;;;;;3.53;2.73;;;;;;;8.15;73.16;99019.22;1742823;78;21107;-50
2021/04/21 05:08:03;;;;;;;4.93;2.77;;;;;;;8.24;72.94;99022.78;1807880;78;21200;-49
2021/04/21 05:10:44;;;;;;;2.67;2.47;;;;;;;8.30;72.82;99023.80;1808706;77;21175;-49
2021/04/21 05:13:14;;;;;;;3.13;1.70;;;;;;;8.40;72.70;99028.73;1790233;78;21075;-49
2021/04/21 05:15:56;;;;;;;7.13;3.17;;;;;;;8.48;72.31;99036.78;1785812;79;21365;-51
2021/04/21 05:18:38;;;;;;;7.83;3.17;;;;;;;8.54;72.15;99040.48;1803994;78;21721;-50
2021/04/21 05:21:50;;;;;;;2.97;2.67;;;;;;;8.58;72.01;99046.10;1806621;78;20961;-50
2021/04/21 05:24:42;;;;;;;4.77;4.27;;;;;;;8.61;71.96;99049.08;1785899;79;21087;-50
2021/04/21 05:27:30;;;;;;;6.23;3.57;;;;;;;8.63;71.93;99053.90;1777791;78;21523;-50
2021/04/21 05:30:20;;;;;;;3.83;3.50;;;;;;;8.66;71.77;99049.73;1705436;78;21597;-49
2021/04/21 05:33:19;;;;;;;5.13;2.43;;;;;;;8.70;71.62;99052.62;1767611;79;21647;-49
2021/04/21 05:36:39;;;;;;;3.40;3.10;;;;;;;8.75;71.65;99042.55;1804238;77;21490;-49
2021/04/21 05:40:00;;;;;;;4.40;4.10;;;;;;;8.82;71.45;99050.66;1784754;78;21087;-49
2021/04/21 05:42:55;;;;;;;3.77;3.47;;;;;;;8.89;71.22;99052.55;1806485;78;21142;-49
2021/04/21 05:45:54;;;;;;;5.23;4.37;;;;;;;8.92;71.14;99057.77;1804804;78;22156;-50
2021/04/21 05:48:57;;;;;;;5.47;4.77;;;;;;;8.93;70.90;99060.84;1799378;78;21127;-49
2021/04/21 05:51:43;;;;;;;6.27;4.07;;;;;;;8.92;70.73;99064.01;1805362;78;21105;-48
2021/04/21 05:54:47;;;;;;;5.57;3.57;;;;;;;8.94;70.43;99060.74;1798796;78;21099;-49
2021/04/21 05:57:32;;;;;;;3.67;3.37;;;;;;;8.99;70.41;99061.86;1803183;78;21140;-48
2021/04/21 06:00:08;;;;;;;3.05;2.75;;;;;;;9.05;70.38;99065.08;1804302;78;22117;-50
2021/04/21 06:02:35;;;;;;;2.67;2.47;;;;;;;9.11;70.16;99064.75;1789494;78;21195;-49
2021/04/21 06:05:12;;;;;;;4.03;3.53;;;;;;;9.17;69.86;99064.05;1784702;78;21670;-50
2021/04/21 06:07:40;;;;;;;7.17;3.40;;;;;;;9.20;69.60;99067.89;1773694;80;21494;-51
2021/04/21 06:10:27;;;;;;;4.27;3.67;;;;;;;9.20;69.37;99079.50;1779905;80;21154;-49
2021/04/21 06:13:01;;;;;;;4.27;3.97;;;;;;;9.18;69.34;99078.73;1779178;78;21240;-49
2021/04/21 06:15:36;;;;;;;4.43;4.13;;;;;;;9.17;69.44;99077.00;1805732;78;21194;-50
2021/04/21 06:18:08;;;;;;;5.07;4.63;;;;;;;9.17;69.45;99085.53;1805397;78;21170;-50
2021/04/21 06:20:41;;;;;;;2.43;2.23;;;;;;;9.17;69.41;99089.08;1781874;78;21202;-49
2021/04/21 06:23:15;;;;;;;3.30;1.83;;;;;;;9.18;69.31;99090.82;1770603;78;21204;-48
2021/04/21 06:25:47;;;;;;;2.43;1.90;;;;;;;9.20;69.17;99094.73;1772714;80;21440;-50
2021/04/21 06:28:20;;;;;;;3.07;2.73;;;;;;;9.22;69.05;99095.53;1789248;79;21238;-51
2021/04/21 06:30:49;;;;;;;3.73;3.10;;;;;;;9.24;68.91;99101.23;1777488;80;21163;-50
2021/04/21 06:33:20;;;;;;;4.00;3.50;;;;;;;9.28;68.88;99102.78;1802248;78;21844;-51
2021/04/21 06:35:47;;;;;;;3.10;2.90;;;;;;;9.35;68.78;99104.22;1778234;78;21152;-50
2021/04/21 06:38:14;;;;;;;4.50;3.20;;;;;;;9.39;68.41;99107.59;1780315;78;21215;-51
2021/04/21 06:40:43;;;;;;;3.43;3.13;;;;;;;9.41;68.34;99102.54;1722715;80;22107;-51
2021/04/21 06:43:10;;;;;;;2.77;2.50;;;;;;;9.45;68.15;99105.44;1778684;78;21190;-51
2021/04/21 06:45:37;;;;;;;5.77;3.03;;;;;;;9.49;68.15;99102.13;1783368;78;21096;-49
2021/04/21 06:48:06;;;;;;;2.93;2.73;;;;;;;9.56;67.93;99098.62;1779813;78;21188;-50
2021/04/21 06:50:37;;;;;;;2.60;2.03;;;;;;;9.64;67.53;99102.63;1778369;78;21253;-50
2021/04/21 06:53:07;;;;;;;2.20;1.73;;;;;;;9.72;67.25;99101.73;1788268;78;21131;-52
2021/04/21 06:55:35;;;;;;;2.20;2.00;;;;;;;9.80;66.69;99091.42;1803972;78;21186;-50
2021/04/21 06:58:17;;;;;;;2.97;2.30;;;;;;;9.90;66.31;99098.98;1806120;78;21446;-51
2021/04/21 07:00:44;;;;;;;3.43;2.43;;;;;;;10.01;65.92;99102.81;1802278;78;21187;-50
2021/04/21 07:03:17;;;;;;;2.70;2.20;;;;;;;10.12;65.27;99106.25;1805571;78;22382;-50
2021/04/21 07:05:46;;;;;;;2.50;2.08;;;;;;;10.14;64.78;99109.22;1778133;78;21194;-50
2021/04/21 07:08:20;;;;;;;3.90;1.80;;;;;;;10.14;64.76;99112.38;1811209;78;21126;-50
2021/04/21 07:10:51;;;;;;;2.17;1.97;;;;;;;10.17;64.58;99107.75;1799925;78;21123;-49
2021/04/21 07:13:22;;;;;;;1.90;1.67;;;;;;;10.19;64.28;99109.01;1770722;80;21111;-51
2021/04/21 07:15:50;;;;;;;2.20;2.00;;;;;;;10.23;64.19;99111.42;1785891;78;21424;-52
2021/04/21 07:18:21;;;;;;;2.22;1.80;;;;;;;10.30;64.10;99115.09;1809850;78;21163;-50
2021/04/21 07:20:48;;;;;;;2.90;1.70;;;;;;;10.34;63.89;99112.16;1806910;78;21218;-51
2021/04/21 07:23:23;;;;;;;1.82;1.45;;;;;;;10.40;63.92;99110.93;1805729;78;21174;-51
2021/04/21 07:25:50;;;;;;;1.30;1.15;;;;;;;10.48;63.74;99116.73;1760960;78;21720;-50
2021/04/21 07:28:19;;;;;;;1.07;0.98;;;;;;;10.61;63.33;99119.13;1779541;78;21716;-50
2021/04/21 07:30:46;;;;;;;1.30;1.02;;;;;;;10.69;61.97;99114.63;1807969;78;21134;-50
2021/04/21 07:33:39;;;;;;;3.47;1.57;;;;;;;10.75;62.00;99119.64;1785951;78;21192;-50
2021/04/21 07:36:22;;;;;;;1.45;1.30;;;;;;;10.82;61.59;99114.28;1808024;78;21147;-49
2021/04/21 07:38:53;;;;;;;1.65;1.55;;;;;;;10.89;61.08;99113.82;1780147;78;21096;-49
2021/04/21 07:41:41;;;;;;;2.37;1.20;;;;;;;10.93;60.62;99114.05;1776664;78;22078;-51
2021/04/21 07:47:14;;;;;;;1.20;1.03;;;;;;;11.00;59.61;99118.58;1866038;75;24752;-51
2021/04/21 07:49:46;;;;;;;1.47;1.10;;;;;;;10.97;59.37;99125.52;1839607;76;20956;-50
2021/04/21 07:52:26;;;;;;;1.50;1.25;;;;;;;10.97;59.34;99124.16;1803298;78;21396;-49
2021/04/21 07:55:18;;;;;;;2.12;1.20;;;;;;;10.97;59.19;99126.86;1806202;78;21013;-51
2021/04/21 07:58:04;;;;;;;4.92;2.02;;;;;;;10.97;59.22;99137.63;1806713;78;20992;-50
2021/04/21 08:00:33;;;;;;;1.30;1.20;;;;;;;10.91;59.31;99133.45;1777626;78;21419;-50
2021/04/21 08:03:01;;;;;;;1.75;1.27;;;;;;;10.84;59.69;99140.64;1770479;79;21143;-50
2021/04/21 08:05:28;;;;;;;1.92;1.27;;;;;;;10.75;59.99;99142.05;1789984;78;21438;-50
2021/04/21 08:07:58;;;;;;;1.92;1.52;;;;;;;10.69;60.91;99149.63;1780281;78;21451;-51
2021/04/21 08:10:27;;;;;;;2.92;1.92;;;;;;;10.57;61.73;99149.37;1807878;78;20937;-49
2021/04/21 08:14:53;;;;;;;2.30;1.63;;;;;;;10.42;63.85;99154.29;1750790;79;22907;-51
2021/04/21 08:17:20;;;;;;;1.25;1.15;;;;;;;10.33;64.71;99154.81;1697391;80;21080;-49
2021/04/21 08:19:51;;;;;;;3.15;1.40;;;;;;;10.31;65.51;99155.84;1725095;80;21632;-52
2021/04/21 08:22:27;;;;;;;1.20;1.10;;;;;;;10.32;66.37;99150.38;1723682;80;21037;-51
2021/04/21 08:24:57;;;;;;;1.70;1.40;;;;;;;10.35;66.83;99155.59;1726305;80;20973;-51
2021/04/21 08:27:25;;;;;;;1.22;1.12;;;;;;;10.43;67.27;99147.09;1727464;80;21195;-50
2021/04/21 08:29:54;;;;;;;4.47;1.90;;;;;;;10.50;67.58;99144.43;1727484;80;21236;-51
2021/04/21 08:32:22;;;;;;;1.92;1.72;;;;;;;10.63;68.12;99138.23;1721589;80;22210;-51
2021/04/21 08:34:52;;;;;;;2.00;1.87;;;;;;;10.77;68.56;99147.34;1724835;80;21173;-50
2021/04/21 08:37:20;;;;;;;2.42;1.22;;;;;;;10.91;68.08;99137.49;1722839;80;21120;-51
2021/04/21 08:39:47;;;;;;;2.10;1.50;;;;;;;11.04;66.68;99150.24;1725475;80;21650;-51
2021/04/21 08:42:14;;;;;;;1.17;1.05;;;;;;;11.11;67.19;99139.01;1726223;80;21120;-51
2021/04/21 08:44:43;;;;;;;0.90;0.80;;;;;;;11.20;66.82;99137.11;1728405;80;21510;-51
2021/04/21 08:47:14;;;;;;;0.95;0.80;;;;;;;11.22;64.30;99139.72;1727641;80;21140;-51
2021/04/21 08:49:42;;;;;;;1.02;0.80;;;;;;;11.23;62.75;99140.94;1724739;80;21123;-50
2021/04/21 08:52:14;;;;;;;1.02;0.90;;;;;;;11.22;62.16;99130.28;1724704;80;21104;-50
2021/04/21 08:54:43;;;;;;;1.37;1.05;;;;;;;11.22;61.60;99134.33;1725390;80;21179;-51
2021/04/21 08:57:10;;;;;;;1.45;0.90;;;;;;;11.22;61.18;99134.33;1725691;80;21642;-49
2021/04/21 08:59:39;;;;;;;0.98;0.88;;;;;;;11.21;61.10;99129.89;1650028;83;21246;-50
2021/04/21 09:02:08;;;;;;;1.07;0.70;;;;;;;11.20;59.96;99126.34;1692812;82;21879;-51
2021/04/21 09:04:35;;;;;;;1.00;0.80;;;;;;;11.21;59.18;99132.59;1665743;83;21752;-50
2021/04/21 09:07:02;;;;;;;1.00;0.90;;;;;;;11.21;58.37;99129.42;1687091;82;21210;-51
2021/04/21 09:09:32;;;;;;;1.00;0.90;;;;;;;11.20;58.59;99130.38;1688898;82;21507;-50
2021/04/21 09:12:02;;;;;;;3.00;0.80;;;;;;;11.20;58.58;99129.03;1720786;80;21226;-50
2021/04/21 09:14:29;;;;;;;0.85;0.70;;;;;;;11.23;58.75;99127.47;1708806;80;21500;-51
2021/04/21 09:16:56;;;;;;;0.72;0.70;;;;;;;11.27;58.83;99139.81;1728575;80;21194;-51
2021/04/21 09:19:24;;;;;;;1.00;0.70;;;;;;;11.30;58.08;99140.12;1725342;80;21251;-52
2021/04/21 09:22:09;;;;;;;0.85;0.78;;;;;;;11.31;57.84;99140.00;1727341;80;21392;-51
2021/04/21 09:24:40;;;;;;;;;;;;;;;11.34;57.43;99133.09;1729660;80;21650;-51
2021/04/21 09:27:34;;;;;;;1.10;0.90;;;;;;;11.40;56.37;99132.34;1727313;80;20315;-50
2021/04/21 09:30:22;;;;;;;0.88;0.78;;;;;;;11.43;55.77;99129.44;1726942;80;21128;-51
2021/04/21 09:32:55;;;;;;;1.17;0.80;;;;;;;11.49;55.27;99134.44;1727110;80;21119;-51
2021/04/21 09:35:38;;;;;;;0.80;0.70;;;;;;;11.53;54.96;99139.56;1722682;80;21601;-51
2021/04/21 09:38:12;;;;;;;1.02;0.75;;;;;;;11.56;54.53;99129.09;1726290;80;21206;-50
2021/04/21 09:40:55;;;;;;;0.68;0.60;;;;;;;11.64;54.43;99126.78;1729274;80;21159;-49
2021/04/21 09:43:33;;;;;;;1.00;0.70;;;;;;;11.65;53.52;99131.21;1727864;80;21196;-49
2021/04/21 09:46:16;;;;;;;1.32;0.65;;;;;;;11.68;54.05;99135.91;1726990;80;21184;-50
2021/04/21 09:48:45;;;;;;;1.57;0.80;;;;;;;11.73;53.78;99134.30;1723597;80;21246;-49
2021/04/21 09:51:21;;;;;;;4.45;1.65;;;;;;;11.77;53.95;99138.55;1729324;80;21578;-51
2021/04/21 09:53:49;;;;;;;;;;;;;;;11.79;53.76;99136.62;1727193;80;21203;-51
2021/04/21 09:56:24;;;;;;;1.10;0.80;;;;;;;11.77;53.20;99152.03;1722845;80;20381;-50
2021/04/21 09:58:57;;;;;;;0.80;0.70;;;;;;;11.72;53.17;99151.43;1724063;80;22665;-51
2021/04/21 10:01:35;;;;;;;5.87;0.70;;;;;;;11.70;53.56;99165.48;1727926;80;21464;-50
2021/04/21 10:07:01;;;;;;;0.80;0.63;;;;;;;11.64;53.65;99172.61;1865095;75;23336;-51
2021/04/21 10:09:35;;;;;;;3.27;0.70;;;;;;;11.43;54.15;99187.38;1779636;78;21091;-51
2021/04/21 10:12:32;;;;;;;1.42;0.70;;;;;;;11.25;54.70;99180.79;1809428;78;21241;-52
2021/04/21 10:15:08;;;;;;;0.80;0.70;;;;;;;11.12;55.06;99181.62;1759246;79;21072;-51
2021/04/21 10:17:40;;;;;;;0.60;0.50;;;;;;;10.98;55.66;99185.11;1812307;78;22266;-51
2021/04/21 10:20:13;;;;;;;0.70;0.60;;;;;;;10.88;56.15;99188.85;1771472;79;21185;-51
2021/04/21 10:22:44;;;;;;;0.85;0.55;;;;;;;10.87;56.82;99177.69;1779205;79;21155;-49
2021/04/21 10:25:14;;;;;;;0.78;0.60;;;;;;;10.93;57.23;99195.30;1779771;79;22344;-50
2021/04/21 10:27:42;;;;;;;0.72;0.55;;;;;;;10.97;57.53;99179.38;1784377;78;21506;-51
2021/04/21 10:30:12;;;;;;;1.02;0.60;;;;;;;11.02;57.57;99173.22;1780562;78;21040;-49
2021/04/21 10:32:39;;;;;;;0.80;0.60;;;;;;;11.14;58.09;99182.41;1778121;78;21428;-52
2021/04/21 10:35:08;;;;;;;1.67;0.57;;;;;;;11.26;57.87;99184.35;1777043;78;21501;-50
2021/04/21 10:37:36;;;;;;;1.00;0.65;;;;;;;11.35;57.94;99183.80;1808589;77;22305;-52
2021/04/21 10:40:05;;;;;;;0.70;0.70;;;;;;;11.42;57.65;99175.73;1806596;78;21127;-50
2021/04/21 10:42:58;;;;;;;0.60;0.50;;;;;;;11.48;57.35;99175.86;1802276;77;21622;-52
2021/04/21 10:45:25;;;;;;;0.60;0.50;;;;;;;11.48;57.28;99181.25;1780720;79;21106;-51
2021/04/21 10:47:54;;;;;;;0.42;0.40;;;;;;;11.51;57.59;99176.52;1790096;78;21111;-51
2021/04/21 10:50:45;;;;;;;0.70;0.40;;;;;;;11.54;57.23;99179.52;1778709;78;21989;-51
2021/04/21 10:53:30;;;;;;;0.70;0.70;;;;;;;11.59;57.19;99182.78;1815850;77;21222;-51
2021/04/21 10:56:20;;;;;;;0.50;0.40;;;;;;;11.60;56.70;99179.13;1761994;79;21180;-49
2021/04/21 10:58:53;;;;;;;0.50;0.40;;;;;;;11.56;56.51;99180.30;1781785;78;21199;-52
2021/04/21 11:01:36;;;;;;;0.42;0.40;;;;;;;11.53;56.72;99188.56;1779410;78;21111;-50
2021/04/21 11:04:05;;;;;;;0.45;0.40;;;;;;;11.53;56.89;99179.13;1781882;79;22759;-49
2021/04/21 11:06:45;;;;;;;0.57;0.30;;;;;;;11.54;57.11;99168.26;1772292;79;21470;-51
2021/04/21 11:09:13;;;;;;;0.82;0.50;;;;;;;11.59;57.32;99172.88;1769968;79;21116;-49
2021/04/21 11:11:47;;;;;;;0.50;0.40;;;;;;;11.66;57.05;99166.61;1788904;78;21299;-49
2021/04/21 11:14:19;;;;;;;1.82;0.42;;;;;;;11.74;56.65;99165.66;1763994;79;20964;-50
2021/04/21 11:16:47;;;;;;;0.50;0.37;;;;;;;11.80;56.34;99157.72;1761203;79;21560;-52
2021/04/21 11:19:24;;;;;;;0.93;0.40;;;;;;;11.87;55.92;99157.23;1763020;79;21586;-50
2021/04/21 11:22:20;;;;;;;0.90;0.60;;;;;;;11.94;55.32;99170.72;1765009;79;21169;-51
2021/04/21 11:25:21;;;;;;;0.60;0.33;;;;;;;11.99;54.40;99167.23;1764796;79;21117;-51
2021/04/21 11:27:49;;;;;;;0.50;0.40;;;;;;;12.03;54.24;99166.09;1764223;79;21659;-50
2021/04/21 11:30:41;;;;;;;0.98;0.50;;;;;;;12.16;54.37;99166.67;1772518;79;21477;-50
2021/04/21 11:33:09;;;;;;;0.50;0.40;;;;;;;12.30;54.08;99165.30;1774021;79;21644;-51
2021/04/21 11:35:36;;;;;;;1.62;0.50;;;;;;;12.47;53.33;99160.54;1774276;79;21494;-51
2021/04/21 11:38:03;;;;;;;0.68;0.50;;;;;;;12.63;52.77;99164.45;1774488;79;21114;-51
2021/04/21 11:40:32;;;;;;;1.42;0.53;;;;;;;12.77;52.49;99158.98;1772986;79;21667;-49
2021/04/21 11:43:14;;;;;;;1.10;0.50;;;;;;;12.90;52.78;99160.41;1774549;79;21377;-50
2021/04/21 11:45:42;;;;;;;1.05;0.60;;;;;;;13.01;52.49;99158.34;1779891;78;21168;-51
2021/04/21 11:48:16;;;;;;;2.05;0.70;;;;;;;13.16;52.61;99154.14;1747995;80;21659;-50
2021/04/21 11:50:48;;;;;;;1.10;0.70;;;;;;;13.31;52.26;99145.45;1766985;79;21208;-50
2021/04/21 11:53:20;;;;;;;0.90;0.62;;;;;;;13.47;52.32;99143.91;1764476;79;21194;-51
2021/04/21 11:55:55;;;;;;;0.90;0.80;;;;;;;13.59;52.84;99144.41;1764058;79;21646;-49
2021/04/21 11:58:30;;;;;;;1.00;0.80;;;;;;;13.71;52.38;99148.94;1779520;78;21519;-50
2021/04/21 12:01:05;;;;;;;1.22;0.90;;;;;;;13.83;52.05;99147.22;1778110;78;21176;-50
2021/04/21 12:03:39;;;;;;;1.00;0.80;;;;;;;13.91;51.04;99143.48;1763829;79;21174;-50
2021/04/21 12:06:09;;;;;;;1.87;0.90;;;;;;;13.91;50.77;99150.24;1765054;78;21758;-50
2021/04/21 12:08:48;;;;;;;0.88;0.72;;;;;;;13.92;51.13;99150.62;1755100;80;21143;-52
2021/04/21 12:11:28;;;;;;;1.87;0.90;;;;;;;13.97;51.15;99148.45;1758315;80;21155;-51
2021/04/21 12:13:56;;;;;;;1.10;0.85;;;;;;;14.01;51.20;99148.13;1754570;80;21506;-51
2021/04/21 12:16:25;;;;;;;2.02;0.88;;;;;;;14.09;50.13;99141.30;1752953;80;21488;-50
2021/04/21 12:18:55;;;;;;;1.00;0.90;;;;;;;14.09;49.56;99139.95;1754005;80;21206;-50
2021/04/21 12:21:28;;;;;;;1.37;1.10;;;;;;;14.08;49.24;99138.20;1752113;80;21796;-51
2021/04/21 12:24:07;;;;;;;1.52;1.15;;;;;;;14.07;49.20;99148.16;1753899;80;21187;-51
2021/04/21 12:26:41;;;;;;;2.20;1.00;;;;;;;14.08;49.07;99131.44;1753488;80;21205;-52
2021/04/21 12:29:17;;;;;;;1.70;1.15;;;;;;;14.07;49.10;99128.36;1731637;80;21711;-51